Time,TemperatureF,DewpointF,PressureIn,WindDirection,WindDirectionDegrees,WindSpeedMPH,WindSpeedGustMPH,Humidity,HourlyPrecipIn,Conditions,Clouds,dailyrainin,SoftwareType,DateUTC
2013-09-05 00:24:00,61.0,60.0,30.15,WNW,292,0.0,0.0,96,0.00,,,0.00,,2013-09-05 04:24:00,
2013-09-05 00:53:00,60.0,59.0,30.13,WNW,292,0.0,0.0,97,0.00,,,0.00,,2013-09-05 04:53:00,
2013-09-05 01:23:00,59.0,59.0,30.15,WNW,292,0.0,0.0,100,0.00,,,0.00,,2013-09-05 05:23:00,
2013-09-05 01:52:00,58.0,58.0,30.15,WNW,292,0.0,0.0,100,0.00,,,0.00,,2013-09-05 05:52:00,
2013-09-05 02:22:00,58.0,58.0,30.15,WNW,292,0.0,0.0,100,0.00,,,0.00,,2013-09-05 06:22:00,
2013-09-05 02:52:00,58.0,58.0,30.15,WNW,292,0.0,0.0,100,0.00,,,0.00,,2013-09-05 06:52:00,
2013-09-05 03:23:00,58.0,58.0,30.15,WNW,292,0.0,0.0,100,0.00,,,0.00,,2013-09-05 07:23:00,
2013-09-05 03:52:00,58.0,58.0,30.15,WNW,292,0.0,0.0,100,0.00,,,0.00,,2013-09-05 07:52:00,
2013-09-05 04:22:00,57.0,57.0,30.16,WNW,292,0.0,0.0,100,0.00,,,0.00,,2013-09-05 08:22:00,
2013-09-05 04:52:00,57.0,57.0,30.16,WNW,292,0.0,0.0,100,0.00,,,0.00,,2013-09-05 08:52:00,
2013-09-05 05:22:00,57.0,57.0,30.18,WNW,292,0.0,0.0,100,0.00,,,0.00,,2013-09-05 09:22:00,
2013-09-05 05:54:00,57.0,57.0,30.19,WNW,292,0.0,0.0,100,0.00,,,0.00,,2013-09-05 09:54:00,
2013-09-05 06:23:00,58.0,58.0,30.18,WNW,292,0.0,0.0,100,0.00,,,0.00,,2013-09-05 10:23:00,
2013-09-05 06:53:00,58.0,58.0,30.19,NE,45,0.0,0.0,100,0.00,,,0.00,,2013-09-05 10:53:00,
2013-09-05 07:22:00,58.0,58.0,30.21,NE,45,0.0,0.0,100,0.00,,,0.00,,2013-09-05 11:22:00,
2013-09-05 07:52:00,58.0,58.0,30.21,NE,45,0.0,0.0,100,0.00,,,0.00,,2013-09-05 11:52:00,
2013-09-05 08:22:00,58.0,58.0,30.22,NE,45,0.0,1.0,100,0.00,,,0.00,,2013-09-05 12:22:00,
2013-09-05 08:52:00,62.0,62.0,30.20,NE,45,1.0,7.0,100,0.00,,,0.00,,2013-09-05 12:52:00,
2013-09-05 09:22:00,64.0,61.0,30.16,North,360,2.0,0.0,90,0.00,,,0.00,,2013-09-05 13:22:00,
2013-09-05 09:53:00,65.0,55.0,30.18,NE,45,3.0,7.0,71,0.00,,,0.00,,2013-09-05 13:53:00,
2013-09-05 10:22:00,67.0,52.0,30.18,NNW,337,1.0,11.0,59,0.00,,,0.00,,2013-09-05 14:22:00,
2013-09-05 10:52:00,67.0,50.0,30.19,NE,45,4.0,8.0,55,0.00,,,0.00,,2013-09-05 14:52:00,
2013-09-05 11:22:00,69.0,51.0,30.19,NNE,22,3.0,7.0,53,0.00,,,0.00,,2013-09-05 15:22:00,
2013-09-05 11:54:00,70.0,52.0,30.19,NNE,22,2.0,5.0,53,0.00,,,0.00,,2013-09-05 15:54:00,
2013-09-05 12:24:00,73.0,52.0,30.16,ESE,112,1.0,4.0,48,0.00,,,0.00,,2013-09-05 16:24:00,
2013-09-05 12:54:00,75.0,52.0,30.16,NE,45,0.0,0.0,44,0.00,,,0.00,,2013-09-05 16:54:00,
2013-09-05 13:23:00,75.0,50.0,30.16,East,90,2.0,2.0,42,0.00,,,0.00,,2013-09-05 17:23:00,
2013-09-05 13:52:00,78.0,50.0,30.16,North,360,0.0,0.0,37,0.00,,,0.00,,2013-09-05 17:52:00,
2013-09-05 14:22:00,77.0,46.0,30.16,West,270,0.0,0.0,34,0.00,,,0.00,,2013-09-05 18:22:00,
2013-09-05 14:52:00,78.0,42.0,30.14,NNE,22,0.0,0.0,28,0.00,,,0.00,,2013-09-05 18:52:00,
2013-09-05 15:22:00,82.0,43.0,30.12,West,270,0.0,0.0,25,0.00,,,0.00,,2013-09-05 19:22:00,
2013-09-05 15:52:00,81.0,43.0,30.12,NW,315,0.0,2.0,26,0.00,,,0.00,,2013-09-05 19:52:00,
2013-09-05 16:22:00,80.0,40.0,30.12,NNW,337,0.0,0.0,24,0.00,,,0.00,,2013-09-05 20:22:00,
2013-09-05 16:52:00,79.0,39.0,30.11,NE,45,0.0,5.0,24,0.00,,,0.00,,2013-09-05 20:52:00,
2013-09-05 17:02:00,79.0,39.0,30.11,NE,45,0.0,5.0,24,0.00,,,0.00,,2013-09-05 21:02:00,
2013-09-05 17:12:00,79.0,39.0,30.11,NE,45,0.0,5.0,24,0.00,,,0.00,,2013-09-05 21:12:00,
2013-09-05 17:21:00,79.0,39.0,30.11,NE,45,0.0,5.0,24,0.00,,,0.00,,2013-09-05 21:21:00,
2013-09-05 17:54:00,77.0,38.0,30.11,NE,45,3.0,5.0,25,0.00,,,0.00,,2013-09-05 21:54:00,
2013-09-05 18:12:00,77.0,40.0,30.14,NE,45,1.0,4.0,27,0.00,,,0.00,,2013-09-05 22:12:00,
2013-09-05 18:24:00,78.0,41.0,30.13,East,90,1.0,4.0,27,0.00,,,0.00,,2013-09-05 22:24:00,
2013-09-05 18:53:00,77.0,40.0,30.14,NE,45,1.0,4.0,27,0.00,,,0.00,,2013-09-05 22:53:00,
2013-09-05 19:02:00,77.0,40.0,30.14,NE,45,1.0,4.0,27,0.00,,,0.00,,2013-09-05 23:02:00,
2013-09-05 19:53:00,70.0,43.0,30.16,NE,45,1.0,4.0,37,0.00,,,0.00,,2013-09-05 23:53:00,
2013-09-05 20:22:00,68.0,43.0,30.19,NE,45,0.0,0.0,41,0.00,,,0.00,,2013-09-06 00:22:00,
2013-09-05 20:52:00,64.0,42.0,30.23,NNE,22,0.0,2.0,44,0.00,,,0.00,,2013-09-06 00:52:00,
2013-09-05 21:22:00,63.0,44.0,30.23,NE,45,0.0,0.0,49,0.00,,,0.00,,2013-09-06 01:22:00,
2013-09-05 21:52:00,61.0,44.0,30.24,ENE,67,0.0,0.0,54,0.00,,,0.00,,2013-09-06 01:52:00,
2013-09-05 22:22:00,59.0,44.0,30.25,NE,45,0.0,0.0,58,0.00,,,0.00,,2013-09-06 02:22:00,
2013-09-05 22:52:00,58.0,46.0,30.27,NE,45,0.0,0.0,64,0.00,,,0.00,,2013-09-06 02:52:00,
2013-09-05 23:22:00,56.0,47.0,30.29,NE,45,0.0,0.0,72,0.00,,,0.00,,2013-09-06 03:22:00,
2013-09-05 23:55:00,54.0,48.0,30.27,NE,45,0.0,0.0,79,0.00,,,0.00,,2013-09-06 03:55:00,